createdAt,value
2019-01-09T00:00:26.548Z,7.85
2019-01-09T00:01:06.914Z,7.81
2019-01-09T00:01:47.489Z,7.74
2019-01-09T00:02:31.712Z,7.82
2019-01-09T00:03:12.516Z,7.81
2019-01-09T00:03:53.933Z,7.73
2019-01-09T00:07:27.416Z,7.94
2019-01-09T00:08:08.275Z,7.92
2019-01-09T00:08:48.765Z,7.81
2019-01-09T00:09:29.103Z,7.92
2019-01-09T00:10:09.524Z,8
2019-01-09T00:10:49.949Z,7.84
2019-01-09T00:11:30.330Z,7.79
2019-01-09T00:12:10.800Z,7.79
2019-01-09T00:12:52.805Z,7.81
2019-01-09T00:13:33.234Z,7.84
2019-01-09T00:14:13.642Z,7.99
2019-01-09T00:14:54.336Z,7.79
2019-01-09T00:15:34.572Z,7.88
2019-01-09T00:16:15.411Z,7.82
2019-01-09T00:16:55.784Z,7.85
2019-01-09T00:17:38.248Z,7.79
2019-01-09T00:18:18.725Z,7.82
2019-01-09T00:19:00.925Z,7.85
2019-01-09T00:19:45.360Z,7.81
2019-01-09T00:20:25.983Z,7.86
2019-01-09T00:21:06.267Z,7.86
2019-01-09T00:21:46.667Z,7.82
2019-01-09T00:22:29.073Z,7.81
2019-01-09T00:23:09.560Z,7.95
2019-01-09T00:23:49.923Z,7.92
2019-01-09T00:24:30.394Z,7.88
2019-01-09T00:25:10.783Z,7.82
2019-01-09T00:25:51.161Z,7.82
2019-01-09T00:26:31.653Z,7.69
2019-01-09T00:27:12.989Z,7.74
2019-01-09T00:27:53.341Z,7.74
2019-01-09T00:28:33.713Z,7.76
2019-01-09T00:29:14.082Z,7.81
2019-01-09T00:29:54.528Z,7.74
2019-01-09T00:30:35.015Z,7.73
2019-01-09T00:31:18.218Z,7.76
2019-01-09T00:31:58.619Z,7.77
2019-01-09T00:32:39.043Z,7.76
2019-01-09T00:39:36.915Z,7.82
2019-01-09T00:40:51.180Z,7.86
2019-01-09T00:41:49.458Z,7.81
2019-01-09T00:47:20.732Z,7.84
2019-01-09T00:48:01.858Z,7.85
2019-01-09T00:48:42.378Z,7.82
2019-01-09T00:49:24.471Z,7.84
2019-01-09T00:50:04.909Z,7.76
2019-01-09T00:50:45.537Z,7.74
2019-01-09T00:51:25.989Z,7.69
2019-01-09T00:52:06.354Z,7.67
2019-01-09T00:52:47.681Z,7.58
2019-01-09T00:53:31.814Z,7.6
2019-01-09T00:54:12.170Z,7.62
2019-01-09T00:54:55.469Z,7.6
2019-01-09T00:55:37.791Z,7.6
2019-01-09T00:56:20.034Z,7.57
2019-01-09T00:57:04.007Z,7.55
2019-01-09T00:57:44.570Z,7.55
2019-01-09T00:58:24.805Z,7.57
2019-01-09T00:59:05.228Z,7.54
2019-01-09T00:59:45.616Z,7.63
2019-01-09T01:00:25.988Z,7.67
2019-01-09T01:01:06.350Z,7.81
2019-01-09T01:01:46.862Z,7.69
2019-01-09T01:02:27.241Z,7.62
2019-01-09T01:03:07.773Z,7.69
2019-01-09T01:03:48.529Z,7.69
2019-01-09T01:04:30.575Z,7.77
2019-01-09T01:05:10.914Z,7.73
2019-01-09T01:05:51.563Z,7.73
2019-01-09T01:06:34.502Z,7.66
2019-01-09T01:07:15.044Z,7.66
2019-01-09T01:07:55.315Z,7.74
2019-01-09T01:08:35.818Z,7.84
2019-01-09T01:09:16.177Z,7.86
2019-01-09T01:09:56.675Z,7.79
2019-01-09T01:10:37.136Z,7.85
2019-01-09T01:11:18.476Z,7.85
2019-01-09T01:11:58.972Z,7.92
2019-01-09T01:12:41.054Z,7.96
2019-01-09T01:13:22.957Z,7.86
2019-01-09T01:14:03.385Z,7.92
2019-01-09T01:14:43.850Z,7.77
2019-01-09T01:15:24.514Z,7.82
2019-01-09T01:16:04.916Z,7.95
2019-01-09T01:16:45.455Z,7.89
2019-01-09T01:17:27.234Z,7.85
2019-01-09T01:18:07.622Z,7.82
2019-01-09T01:18:48.988Z,7.84
2019-01-09T01:19:29.324Z,7.82
2019-01-09T01:20:09.705Z,7.96
2019-01-09T01:20:50.236Z,7.95
2019-01-09T01:21:31.470Z,7.99
2019-01-09T01:22:12.079Z,7.96
2019-01-09T01:22:52.479Z,7.99
2019-01-09T01:23:33.134Z,7.89
2019-01-09T01:24:13.699Z,8.04
2019-01-09T01:24:55.691Z,8.07
2019-01-09T01:25:36.036Z,8.04
2019-01-09T01:26:17.549Z,8.04
2019-01-09T01:34:48.207Z,7.76
2019-01-09T01:35:29.324Z,7.58
2019-01-09T01:36:09.791Z,7.67
2019-01-09T01:36:51.036Z,7.62
2019-01-09T01:37:31.459Z,7.69
2019-01-09T01:38:13.742Z,7.57
2019-01-09T01:38:54.159Z,7.6
2019-01-09T01:39:34.519Z,7.57
2019-01-09T01:40:15.985Z,7.73
2019-01-09T01:40:58.686Z,7.6
2019-01-09T01:41:39.124Z,7.66
2019-01-09T01:42:19.607Z,7.63
2019-01-09T01:42:59.937Z,7.55
2019-01-09T01:43:40.586Z,7.63
2019-01-09T01:44:21.692Z,7.71
2019-01-09T01:45:02.159Z,7.82
2019-01-09T01:45:42.572Z,7.73
2019-01-09T01:46:23.325Z,7.73
2019-01-09T01:47:05.611Z,7.74
2019-01-09T01:47:47.936Z,7.76
2019-01-09T01:48:29.259Z,7.77
2019-01-09T01:49:10.086Z,7.73
2019-01-09T01:49:50.702Z,7.74
2019-01-09T01:50:32.612Z,7.82
2019-01-09T01:51:13.014Z,7.74
2019-01-09T01:51:53.452Z,7.81
2019-01-09T01:52:33.894Z,7.67
2019-01-09T01:53:14.218Z,7.74
2019-01-09T01:53:58.283Z,7.81
2019-01-09T01:54:38.640Z,7.77
2019-01-09T01:55:19.114Z,7.84
2019-01-09T01:56:01.335Z,7.81
2019-01-09T01:56:41.724Z,7.81
2019-01-09T01:57:22.153Z,7.89
2019-01-09T01:58:02.580Z,7.92
2019-01-09T01:58:44.683Z,7.95
2019-01-09T01:59:26.892Z,7.99
2019-01-09T02:00:07.439Z,7.94
2019-01-09T02:00:47.954Z,8.02
2019-01-09T02:01:28.653Z,7.96
2019-01-09T02:02:09.718Z,7.99
2019-01-09T02:02:49.992Z,7.96
2019-01-09T02:03:40.181Z,7.91
2019-01-09T02:04:22.526Z,8.04
2019-01-09T02:05:02.873Z,7.95
2019-01-09T02:05:43.341Z,7.89
2019-01-09T02:06:23.869Z,8
2019-01-09T02:07:05.646Z,8.02
2019-01-09T02:07:45.987Z,7.99
2019-01-09T02:08:26.479Z,7.99
2019-01-09T02:09:08.801Z,7.88
2019-01-09T02:09:49.081Z,7.96
2019-01-09T02:10:32.500Z,7.91
2019-01-09T02:11:14.259Z,7.99
2019-01-09T02:11:53.379Z,7.91
2019-01-09T02:12:33.718Z,8.02
2019-01-09T02:13:14.117Z,8.03
2019-01-09T02:13:54.545Z,8.09
2019-01-09T02:14:36.625Z,8.02
2019-01-09T02:15:17.963Z,8.12
2019-01-09T02:15:58.360Z,8.03
2019-01-09T02:16:40.015Z,7.94
2019-01-09T02:17:20.422Z,7.92
2019-01-09T02:18:01.729Z,7.94
2019-01-09T02:18:43.616Z,7.79
2019-01-09T02:19:24.973Z,7.82
2019-01-09T02:20:07.134Z,7.86
2019-01-09T02:20:49.533Z,7.71
2019-01-09T02:21:31.771Z,7.73
2019-01-09T02:22:12.274Z,7.77
2019-01-09T02:22:54.024Z,7.7
2019-01-09T02:23:34.399Z,7.69
2019-01-09T02:24:14.794Z,7.63
2019-01-09T02:24:56.177Z,7.6
2019-01-09T02:25:36.697Z,7.63
2019-01-09T02:26:17.107Z,7.58
2019-01-09T02:26:57.608Z,7.58
2019-01-09T02:27:37.939Z,7.63
2019-01-09T02:28:24.235Z,7.42
2019-01-09T02:29:04.629Z,7.55
2019-01-09T02:29:45.002Z,7.51
2019-01-09T02:30:25.383Z,7.48
2019-01-09T02:31:05.846Z,7.55
2019-01-09T02:31:46.279Z,7.54
2019-01-09T02:32:27.660Z,7.48
2019-01-09T02:33:08.158Z,7.48
2019-01-09T02:33:48.561Z,7.48
2019-01-09T02:34:29.289Z,7.63
2019-01-09T02:35:09.534Z,7.6
2019-01-09T02:35:50.319Z,7.6
2019-01-09T02:36:30.664Z,7.71
2019-01-09T02:37:11.185Z,7.73
2019-01-09T02:37:51.632Z,7.76
2019-01-09T02:38:32.042Z,7.62
2019-01-09T02:39:13.407Z,7.62
2019-01-09T02:39:53.798Z,7.58
2019-01-09T02:40:34.328Z,7.62
2019-01-09T02:41:14.575Z,7.62
2019-01-09T02:41:55.098Z,7.57
2019-01-09T02:42:36.855Z,7.69
2019-01-09T02:43:18.201Z,7.67
2019-01-09T02:43:58.616Z,7.69
2019-01-09T02:44:39.018Z,7.73
2019-01-09T02:45:20.253Z,7.63
2019-01-09T02:46:02.749Z,7.57
2019-01-09T02:46:44.940Z,7.58
2019-01-09T02:47:26.922Z,7.6
2019-01-09T02:48:07.360Z,7.6
2019-01-09T02:48:49.481Z,7.58
2019-01-09T02:49:29.804Z,7.69
2019-01-09T02:50:11.889Z,7.62
2019-01-09T02:50:53.992Z,7.66
2019-01-09T02:51:35.263Z,7.66
2019-01-09T02:52:15.766Z,7.67
2019-01-09T02:52:58.100Z,7.6
2019-01-09T02:53:41.401Z,7.58
2019-01-09T02:54:23.589Z,7.66
2019-01-09T02:55:04.940Z,7.58
2019-01-09T02:55:46.826Z,7.63
2019-01-09T02:56:28.334Z,7.57
2019-01-09T02:57:09.663Z,7.66
2019-01-09T02:57:56.720Z,7.58
2019-01-09T02:58:32.054Z,7.62
2019-01-09T02:59:12.447Z,7.7
2019-01-09T02:59:53.723Z,7.6
2019-01-09T03:00:34.208Z,7.66
2019-01-09T03:01:15.761Z,7.71
2019-01-09T03:01:57.278Z,7.73
2019-01-09T03:02:37.743Z,7.67
2019-01-09T03:03:21.701Z,7.62
2019-01-09T03:04:02.688Z,7.69
2019-01-09T03:04:43.352Z,7.71
2019-01-09T03:05:25.439Z,7.63
2019-01-09T03:06:05.909Z,7.63
2019-01-09T03:06:46.278Z,7.62
2019-01-09T03:07:26.654Z,7.58
2019-01-09T03:08:07.996Z,7.66
2019-01-09T03:08:50.336Z,7.76
2019-01-09T03:09:30.754Z,7.7
2019-01-09T03:10:12.206Z,7.74
2019-01-09T03:10:52.684Z,7.74
2019-01-09T03:11:36.925Z,7.66
2019-01-09T03:12:17.494Z,7.6
2019-01-09T03:12:58.025Z,7.6
2019-01-09T03:13:38.381Z,7.63
2019-01-09T03:14:18.815Z,7.74
2019-01-09T03:15:01.110Z,7.79
2019-01-09T03:15:41.340Z,7.76
2019-01-09T03:16:22.743Z,7.85
2019-01-09T03:17:03.245Z,7.71
2019-01-09T03:17:43.581Z,7.76
2019-01-09T03:18:26.317Z,7.73
2019-01-09T03:19:06.244Z,7.73
2019-01-09T03:19:46.600Z,7.71
2019-01-09T03:20:27.050Z,7.69
2019-01-09T03:21:08.383Z,7.7
2019-01-09T03:21:48.990Z,7.63
2019-01-09T03:22:33.445Z,7.66
2019-01-09T03:23:15.020Z,7.67
2019-01-09T03:23:55.426Z,7.57
2019-01-09T03:24:36.075Z,7.6
2019-01-09T03:25:16.417Z,7.58
2019-01-09T03:25:56.695Z,7.57
2019-01-09T03:26:37.295Z,7.62
2019-01-09T03:27:19.346Z,7.74
2019-01-09T03:28:01.697Z,7.69
2019-01-09T03:28:42.473Z,7.82
2019-01-09T03:29:24.038Z,7.71
2019-01-09T03:30:05.402Z,7.76
2019-01-09T03:30:45.793Z,7.7
2019-01-09T03:31:26.331Z,7.67
2019-01-09T03:32:08.600Z,7.57
2019-01-09T03:32:48.963Z,7.66
2019-01-09T03:43:30.976Z,7.85
2019-01-09T03:44:25.721Z,7.82
2019-01-09T03:45:19.223Z,7.74
2019-01-09T03:46:11.420Z,7.66
2019-01-09T03:47:04.557Z,7.6
2019-01-09T03:47:56.914Z,7.67
2019-01-09T03:48:49.552Z,7.62
2019-01-09T03:49:41.985Z,7.71
2019-01-09T03:50:34.399Z,7.73
2019-01-09T03:51:26.873Z,7.73
2019-01-09T03:52:19.910Z,7.73
2019-01-09T03:53:13.418Z,7.88
2019-01-09T03:54:07.963Z,7.92
2019-01-09T03:55:02.436Z,7.95
2019-01-09T03:55:59.520Z,7.71
2019-01-09T03:56:53.498Z,7.73
2019-01-09T03:57:45.957Z,7.74
2019-01-09T03:58:40.202Z,7.74
2019-01-09T03:59:33.136Z,7.62
2019-01-09T04:00:26.745Z,7.6
2019-01-09T04:01:20.170Z,7.62
2019-01-09T04:02:12.076Z,7.69
2019-01-09T04:03:04.316Z,7.69
2019-01-09T04:03:57.453Z,7.79
2019-01-09T04:04:52.539Z,7.71
2019-01-09T04:05:48.099Z,7.74
2019-01-09T04:06:41.915Z,7.71
2019-01-09T04:07:33.150Z,7.7
2019-01-09T04:08:25.301Z,7.77
2019-01-09T04:09:17.934Z,7.74
2019-01-09T04:10:10.436Z,7.76
2019-01-09T04:11:05.329Z,7.73
2019-01-09T04:11:59.026Z,7.77
2019-01-09T04:12:52.001Z,7.77
2019-01-09T04:13:44.120Z,7.85
2019-01-09T04:14:42.965Z,7.94
2019-01-09T04:15:39.492Z,7.92
2019-01-09T04:16:33.256Z,7.95
2019-01-09T04:17:28.716Z,8.03
2019-01-09T04:18:24.029Z,7.92
2019-01-09T04:19:21.664Z,7.92
2019-01-09T04:20:17.147Z,8
2019-01-09T04:21:11.130Z,7.95
2019-01-09T04:22:06.411Z,7.95
2019-01-09T04:23:02.818Z,7.91
2019-01-09T04:23:56.030Z,7.92
2019-01-09T04:24:51.483Z,7.79
2019-01-09T04:25:50.715Z,7.79
2019-01-09T04:26:42.237Z,7.76
2019-01-09T04:27:34.496Z,7.73
2019-01-09T05:08:08.619Z,6.91
2019-01-09T05:09:01.117Z,6.96
2019-01-09T05:09:54.380Z,6.97
2019-01-09T05:10:50.133Z,7.01
2019-01-09T05:11:44.517Z,7.11
2019-01-09T05:12:36.960Z,7.09
2019-01-09T05:13:29.111Z,7.14
2019-01-09T05:14:23.544Z,7.15
2019-01-09T05:15:18.016Z,7.12
2019-01-09T05:16:14.937Z,7.15
2019-01-09T05:27:00.694Z,7.37
2019-01-09T05:27:50.241Z,7.39
2019-01-09T05:28:32.881Z,7.41
2019-01-09T05:29:23.214Z,7.34
2019-01-09T05:30:04.684Z,7.37
2019-01-09T05:30:52.552Z,7.44
2019-01-09T05:31:42.768Z,7.41
2019-01-09T05:32:23.175Z,7.39
2019-01-09T05:33:05.880Z,7.37
2019-01-09T05:33:49.154Z,7.47
2019-01-09T05:34:30.299Z,7.37
2019-01-09T05:35:15.025Z,7.47
2019-01-09T05:35:57.405Z,7.47
2019-01-09T05:36:37.757Z,7.52
2019-01-09T05:37:19.889Z,7.57
2019-01-09T05:38:04.099Z,7.51
2019-01-09T05:40:22.623Z,7.57
2019-01-09T05:41:18.505Z,7.5
2019-01-09T05:42:13.038Z,7.52
2019-01-09T05:43:06.373Z,7.58
2019-01-09T05:50:02.758Z,7.57
2019-01-09T05:50:54.554Z,7.5
2019-01-09T05:51:46.627Z,7.5
2019-01-09T05:52:38.775Z,7.41
2019-01-09T05:53:31.439Z,7.47
2019-01-09T05:54:32.107Z,7.48
2019-01-09T05:55:26.149Z,7.57
2019-01-09T05:56:22.703Z,7.57
2019-01-09T05:57:17.555Z,7.55
2019-01-09T05:58:10.487Z,7.45
2019-01-09T05:59:05.977Z,7.58
2019-01-09T05:59:58.366Z,7.57
2019-01-09T06:00:50.824Z,7.57
2019-01-09T06:01:43.529Z,7.6
2019-01-09T06:02:35.857Z,7.58
2019-01-09T06:03:28.149Z,7.62
2019-01-09T06:04:20.503Z,7.62
2019-01-09T06:05:12.356Z,7.66
2019-01-09T06:06:06.186Z,7.58
2019-01-09T06:06:59.211Z,7.66
2019-01-09T06:07:51.841Z,7.55
2019-01-09T06:08:45.773Z,7.6
2019-01-09T06:09:41.138Z,7.74
2019-01-09T06:10:39.214Z,7.73
2019-01-09T06:11:34.564Z,7.71
2019-01-09T06:12:27.852Z,7.62
2019-01-09T06:13:24.044Z,7.62
2019-01-09T06:14:17.748Z,7.63
2019-01-09T06:15:10.565Z,7.63
2019-01-09T06:16:06.125Z,7.74
2019-01-09T06:17:01.653Z,7.77
2019-01-09T06:17:59.104Z,7.66
2019-01-09T06:18:41.671Z,7.82
2019-01-09T06:19:25.602Z,7.77
2019-01-09T06:20:10.333Z,7.77
2019-01-09T06:20:51.809Z,7.73
2019-01-09T06:21:33.817Z,7.79
2019-01-09T06:22:19.617Z,7.76
2019-01-09T06:23:00.439Z,7.69
2019-01-09T06:23:41.771Z,7.67
2019-01-09T06:24:23.601Z,7.62
2019-01-09T06:25:07.938Z,7.55
2019-01-09T06:25:55.503Z,7.55
2019-01-09T06:26:38.538Z,7.6
2019-01-09T06:27:19.614Z,7.62
2019-01-09T06:28:04.933Z,7.63
2019-01-09T06:28:45.962Z,7.73
2019-01-09T06:29:27.454Z,7.71
2019-01-09T06:30:09.946Z,7.73
2019-01-09T06:30:49.886Z,7.79
2019-01-09T06:31:30.586Z,7.88
2019-01-09T06:32:11.049Z,7.79
2019-01-09T06:32:51.941Z,7.69
2019-01-09T06:33:36.984Z,7.74
2019-01-09T06:42:12.948Z,7.48
2019-01-09T06:43:07.284Z,7.34
2019-01-09T06:43:59.270Z,7.24
2019-01-09T06:44:56.260Z,7.18
2019-01-09T06:45:48.594Z,7.14
2019-01-09T06:47:14.685Z,7.21
2019-01-09T06:53:14.423Z,7.01
2019-01-09T06:54:09.055Z,7.04
2019-01-09T06:55:02.636Z,7.09
2019-01-09T06:55:54.912Z,7.09
2019-01-09T06:56:47.819Z,7.01
2019-01-09T07:03:52.597Z,7
2019-01-09T07:04:50.798Z,7.18
2019-01-09T07:05:48.098Z,7.12
2019-01-09T07:11:42.857Z,7.15
2019-01-09T07:12:41.642Z,7.15
2019-01-09T07:13:36.639Z,7.18
2019-01-09T07:14:34.482Z,7.15
2019-01-09T07:15:29.521Z,7.12
2019-01-09T07:16:26.213Z,6.99
2019-01-09T07:17:26.914Z,7.01
2019-01-09T07:18:31.191Z,7.04
2019-01-09T07:19:34.037Z,7
2019-01-09T07:20:31.840Z,7.08
2019-01-09T07:21:29.350Z,7.14
2019-01-09T07:23:13.706Z,7.12
2019-01-09T07:24:07.779Z,7.04
2019-01-09T07:25:46.831Z,7
2019-01-09T07:29:01.278Z,6.94
2019-01-09T07:29:46.839Z,6.94
2019-01-09T07:30:30.756Z,6.94
2019-01-09T07:31:14.667Z,6.87
2019-01-09T07:31:57.290Z,6.93
2019-01-09T07:32:39.538Z,7.04
2019-01-09T07:33:23.294Z,7.07
2019-01-09T07:34:11.791Z,7.11
2019-01-09T07:34:54.456Z,7.05
2019-01-09T07:35:35.181Z,7.09
2019-01-09T07:40:58.867Z,7.24
2019-01-09T07:41:57.355Z,7.34
2019-01-09T07:42:54.804Z,7.29
2019-01-09T07:43:48.289Z,7.32
2019-01-09T07:44:45.189Z,7.15
2019-01-09T07:45:37.251Z,7.32
2019-01-09T07:46:35.989Z,7.27
2019-01-09T07:47:41.541Z,7.3
2019-01-09T07:48:38.919Z,7.21
2019-01-09T07:49:41.497Z,7.23
2019-01-09T07:50:44.938Z,7.32
2019-01-09T07:52:58.287Z,7.36
2019-01-09T07:53:58.145Z,7.32
2019-01-09T07:54:53.514Z,7.5
2019-01-09T07:56:01.009Z,7.6
2019-01-09T07:57:01.143Z,7.51
2019-01-09T07:57:54.411Z,7.48
2019-01-09T07:58:47.670Z,7.58
2019-01-09T07:59:54.707Z,7.6
2019-01-09T08:01:01.622Z,7.55
2019-01-09T08:01:56.870Z,7.51
2019-01-09T08:07:53.433Z,7.79
2019-01-09T08:09:59.745Z,7.82
2019-01-09T08:11:02.957Z,7.85
2019-01-09T08:12:13.203Z,7.99
2019-01-09T08:13:49.001Z,7.84
2019-01-09T08:14:52.603Z,7.89
2019-01-09T08:15:53.336Z,8.04
2019-01-09T08:16:50.993Z,7.95
2019-01-09T08:17:51.787Z,8.03
2019-01-09T08:18:54.081Z,8.04
2019-01-09T08:22:35.396Z,8.28
2019-01-09T08:23:37.022Z,8.31
2019-01-09T08:24:39.663Z,8.34
2019-01-09T08:25:38.735Z,8.32
2019-01-09T08:26:52.155Z,8.32
2019-01-09T08:41:10.046Z,7.69
2019-01-09T08:42:11.674Z,7.62
2019-01-09T08:43:13.224Z,7.66
2019-01-09T08:44:13.253Z,7.55
2019-01-09T08:45:13.267Z,7.52
2019-01-09T08:46:15.320Z,7.55
2019-01-09T08:47:25.773Z,7.55
2019-01-09T08:52:43.777Z,7.63
2019-01-09T08:53:57.457Z,7.67
2019-01-09T08:56:21.214Z,7.95
2019-01-09T08:57:08.911Z,8.02
2019-01-09T08:58:03.095Z,8.22
2019-01-09T08:58:43.423Z,8.34
2019-01-09T08:59:30.030Z,8.4
2019-01-09T09:00:13.841Z,8.6
2019-01-09T09:01:02.460Z,8.61
2019-01-09T09:01:46.642Z,8.91
2019-01-09T09:02:27.428Z,8.98
2019-01-09T09:03:13.975Z,9.06
2019-01-09T09:04:15.532Z,9.38
2019-01-09T09:04:57.625Z,9.4
2019-01-09T09:05:47.470Z,9.63
2019-01-09T09:06:32.915Z,9.75
2019-01-09T09:07:14.930Z,10.04
2019-01-09T09:08:00.164Z,10.13
2019-01-09T09:08:42.411Z,10.18
2019-01-09T09:09:28.332Z,10.18
2019-01-09T09:10:11.303Z,10.24
2019-01-09T09:11:04.501Z,10.28
2019-01-09T09:11:45.748Z,10.28
2019-01-09T09:12:32.422Z,10.36
2019-01-09T09:13:14.081Z,10.38
2019-01-09T09:13:57.419Z,10.51
2019-01-09T09:14:41.236Z,10.47
2019-01-09T09:15:25.391Z,10.43
2019-01-09T09:16:18.051Z,10.47
2019-01-09T09:17:03.761Z,10.43
2019-01-09T09:18:00.829Z,10.31
2019-01-09T09:18:41.430Z,10.32
2019-01-09T09:19:23.831Z,10.18
2019-01-09T09:20:05.285Z,10.29
2019-01-09T09:20:45.808Z,10.11
2019-01-09T09:21:29.319Z,9.96
2019-01-09T09:22:09.710Z,9.59
2019-01-09T09:22:57.782Z,9.45
2019-01-09T09:23:41.538Z,9.26
2019-01-09T09:24:33.842Z,9.24
2019-01-09T09:25:20.108Z,9.24
2019-01-09T09:26:07.304Z,9.15
2019-01-09T09:26:52.567Z,9.08
2019-01-09T09:27:44.673Z,9.13
2019-01-09T09:28:26.992Z,9.06
2019-01-09T09:29:08.083Z,8.94
2019-01-09T09:29:50.352Z,8.89
2019-01-09T09:30:31.925Z,8.88
2019-01-09T09:31:17.230Z,8.73
2019-01-09T09:31:57.672Z,8.76
2019-01-09T09:32:39.039Z,8.71
2019-01-09T09:33:20.459Z,8.73
2019-01-09T09:34:04.385Z,8.73
2019-01-09T09:34:45.027Z,8.73
2019-01-09T09:35:26.299Z,8.71
2019-01-09T09:36:10.877Z,8.64
2019-01-09T09:36:55.982Z,8.78
2019-01-09T09:37:38.851Z,8.68
2019-01-09T09:38:23.350Z,8.75
2019-01-09T09:39:03.878Z,8.76
2019-01-09T09:39:46.096Z,8.79
2019-01-09T09:40:28.336Z,8.85
2019-01-09T09:41:13.959Z,8.91
2019-01-09T09:41:55.637Z,9.12
2019-01-09T09:42:38.570Z,9.2
2019-01-09T09:43:19.098Z,9.34
2019-01-09T09:44:08.043Z,9.55
2019-01-09T09:44:53.618Z,9.8
2019-01-09T09:45:35.383Z,9.88
2019-01-09T09:46:17.345Z,9.83
2019-01-09T09:51:32.052Z,10.32
2019-01-09T09:52:29.381Z,10.36
2019-01-09T09:53:27.519Z,10.55
2019-01-09T09:54:23.183Z,10.72
2019-01-09T09:55:19.232Z,10.87
2019-01-09T09:56:13.054Z,11.02
2019-01-09T09:57:11.720Z,11.13
2019-01-09T09:58:08.475Z,11.31
2019-01-09T09:59:11.021Z,11.6
2019-01-09T10:00:12.184Z,11.93
2019-01-09T10:01:17.544Z,11.94
2019-01-09T10:02:17.250Z,11.96
2019-01-09T10:03:18.803Z,11.96
2019-01-09T10:04:30.957Z,12.12
2019-01-09T10:05:30.914Z,12.01
2019-01-09T10:06:38.057Z,12.16
2019-01-09T10:08:31.075Z,12.16
2019-01-09T10:09:13.161Z,12.33
2019-01-09T10:09:53.542Z,12.37
2019-01-09T10:10:34.362Z,12.37
2019-01-09T10:11:16.115Z,12.34
2019-01-09T10:11:56.988Z,12.16
2019-01-09T10:12:38.316Z,12.15
2019-01-09T10:13:19.033Z,12.13
2019-01-09T10:14:00.582Z,12.13
2019-01-09T10:14:42.724Z,12.08
2019-01-09T10:15:23.178Z,11.98
2019-01-09T10:16:04.221Z,11.9
2019-01-09T10:16:47.750Z,11.98
2019-01-09T10:17:29.156Z,11.79
2019-01-09T10:18:09.727Z,11.64
2019-01-09T10:18:51.561Z,11.64
2019-01-09T10:19:40.094Z,11.59
2019-01-09T10:20:22.880Z,11.64
2019-01-09T10:21:03.231Z,11.46
2019-01-09T10:21:46.407Z,11.45
2019-01-09T10:22:31.791Z,11.33
2019-01-09T10:23:12.535Z,11.19
2019-01-09T10:23:56.553Z,11.21
2019-01-09T10:25:06.526Z,11.23
2019-01-09T10:25:47.877Z,10.99
2019-01-09T10:26:30.131Z,11.08
2019-01-09T10:27:11.689Z,10.99
2019-01-09T10:27:52.008Z,11.11
2019-01-09T10:28:34.788Z,11.03
2019-01-09T11:10:42.308Z,14.98
2019-01-09T11:11:36.782Z,15.03
2019-01-09T11:12:31.306Z,15.01
2019-01-09T11:13:28.021Z,15.04
2019-01-09T11:14:20.211Z,15.13
2019-01-09T11:15:14.557Z,15.22
2019-01-09T11:16:08.082Z,15.19
2019-01-09T11:17:06.004Z,15.03
2019-01-09T11:18:04.307Z,15
2019-01-09T11:19:01.014Z,14.8
2019-01-09T11:20:15.598Z,14.52
2019-01-09T11:27:12.953Z,12.98
2019-01-09T11:28:18.438Z,12.81
2019-01-09T11:29:24.347Z,12.55
2019-01-09T11:30:23.223Z,12.29
2019-01-09T11:32:17.519Z,11.94
2019-01-09T11:32:58.083Z,11.87
2019-01-09T11:33:38.576Z,11.77
2019-01-09T11:34:19.117Z,11.67
2019-01-09T11:34:59.621Z,11.51
2019-01-09T11:35:40.826Z,11.6
2019-01-09T11:36:21.413Z,11.54
2019-01-09T11:37:02.568Z,11.24
2019-01-09T11:37:43.436Z,11.2
2019-01-09T11:38:24.832Z,11.2
2019-01-09T11:39:05.307Z,11.19
2019-01-09T11:39:45.864Z,11.2
2019-01-09T11:40:26.352Z,11.27
2019-01-09T11:41:07.099Z,11.17
2019-01-09T11:41:47.730Z,11.27
2019-01-09T11:42:28.482Z,11.21
2019-01-09T11:43:09.176Z,11.3
2019-01-09T11:43:50.044Z,11.33
2019-01-09T11:44:31.628Z,11.27
2019-01-09T11:45:13.844Z,11.27
2019-01-09T11:45:55.242Z,11.02
2019-01-09T11:46:36.021Z,11.03
2019-01-09T11:47:16.443Z,10.84
2019-01-09T11:55:55.125Z,10.38
2019-01-09T11:56:39.698Z,10.39
2019-01-09T11:57:23.311Z,10.32
2019-01-09T11:58:08.991Z,10.28
2019-01-09T11:58:51.839Z,10.22
2019-01-09T11:59:32.389Z,10.17
2019-01-09T12:00:13.668Z,10.14
2019-01-09T12:00:57.501Z,10.06
2019-01-09T12:01:38.003Z,9.98
2019-01-09T12:02:22.114Z,9.93
2019-01-09T12:03:01.150Z,9.96
2019-01-09T12:03:46.044Z,9.98
2019-01-09T12:04:27.610Z,9.74
2019-01-09T12:05:09.772Z,9.68
2019-01-09T12:05:55.198Z,9.65
2019-01-09T12:06:41.297Z,9.74
2019-01-09T12:07:29.020Z,9.81
2019-01-09T12:08:11.079Z,9.86
2019-01-09T12:08:53.436Z,9.95
2019-01-09T12:09:33.864Z,9.83
2019-01-09T12:10:16.310Z,9.83
2019-01-09T12:10:58.502Z,9.75
2019-01-09T12:11:43.243Z,9.6
2019-01-09T12:12:27.247Z,9.65
2019-01-09T12:13:10.549Z,9.63
2019-01-09T12:13:53.228Z,9.68
2019-01-09T12:14:34.794Z,9.74
2019-01-09T12:15:15.283Z,9.71
2019-01-09T12:16:07.701Z,9.78
2019-01-09T12:16:40.053Z,9.75
2019-01-09T12:17:20.615Z,9.7
2019-01-09T12:18:03.075Z,9.71
2019-01-09T12:18:44.887Z,9.75
2019-01-09T12:22:35.886Z,9.92
2019-01-09T12:23:34.106Z,9.88
2019-01-09T12:30:57.456Z,9.98
2019-01-09T12:32:21.301Z,9.85
2019-01-09T12:35:21.211Z,9.86
2019-01-09T12:36:27.077Z,9.73
2019-01-09T12:43:37.573Z,10.04
2019-01-09T12:44:35.851Z,10.14
2019-01-09T12:45:37.895Z,10.26
2019-01-09T12:46:36.273Z,10.25
2019-01-09T12:47:32.777Z,10.24
2019-01-09T12:48:30.535Z,10.17
2019-01-09T12:49:29.187Z,10.22
2019-01-09T12:50:32.479Z,10.14
2019-01-09T12:51:34.923Z,10.2
2019-01-09T12:52:35.324Z,10.24
2019-01-09T12:59:43.634Z,10.13
2019-01-09T13:03:47.737Z,10.24
2019-01-09T13:04:45.018Z,10.26
2019-01-09T13:05:42.884Z,10.07
2019-01-09T13:06:36.595Z,9.93
2019-01-09T13:07:44.046Z,9.68
2019-01-09T13:08:41.751Z,9.59
2019-01-09T13:09:42.453Z,9.63
2019-01-09T13:10:43.245Z,9.71
2019-01-09T13:11:36.505Z,9.68
2019-01-09T13:20:25.427Z,10.26
2019-01-09T13:21:10.885Z,10.17
2019-01-09T13:21:52.905Z,10.16
2019-01-09T13:22:34.534Z,10.09
2019-01-09T13:23:16.953Z,10.02
2019-01-09T13:23:58.571Z,10.01
2019-01-09T13:24:43.831Z,10.06
2019-01-09T13:25:27.832Z,9.92
2019-01-09T13:26:11.736Z,10.01
2019-01-09T13:26:54.982Z,10.02
2019-01-09T13:27:39.840Z,10.02
2019-01-09T13:28:22.403Z,10.01
2019-01-09T13:29:06.166Z,10.07
2019-01-09T13:29:49.286Z,10.09
2019-01-09T13:30:29.975Z,10.09
2019-01-09T13:31:15.905Z,10.13
2019-01-09T13:31:57.350Z,10.13
2019-01-09T13:34:08.590Z,9.99
2019-01-09T13:35:06.774Z,9.99
2019-01-09T13:36:01.201Z,9.98
2019-01-09T13:36:55.882Z,10.06
2019-01-09T13:38:02.062Z,10.02
2019-01-09T13:40:54.354Z,9.91
2019-01-09T13:41:46.791Z,9.85
2019-01-09T13:42:41.401Z,9.95
2019-01-09T13:43:41.659Z,10.01
2019-01-09T13:45:59.632Z,10.25
2019-01-09T13:46:42.712Z,10.24
2019-01-09T13:47:23.138Z,10.32
2019-01-09T13:48:09.260Z,10.32
2019-01-09T13:48:52.032Z,10.34
2019-01-09T13:49:38.329Z,10.39
2019-01-09T13:50:21.279Z,10.49
2019-01-09T13:51:03.527Z,10.47
2019-01-09T13:51:53.718Z,10.44
2019-01-09T13:52:35.127Z,10.46
2019-01-09T13:53:18.822Z,10.44
2019-01-09T13:53:59.073Z,10.44
2019-01-09T13:54:42.420Z,10.49
2019-01-09T13:55:25.300Z,10.46
2019-01-09T13:56:08.720Z,10.34
2019-01-09T13:56:49.256Z,10.32
2019-01-09T13:57:33.417Z,10.34
2019-01-09T13:58:22.451Z,10.35
2019-01-09T13:59:06.821Z,10.35
2019-01-09T13:59:50.240Z,10.29
2019-01-09T14:03:12.449Z,10.26
2019-01-09T14:04:21.079Z,10.28
2019-01-09T14:05:45.253Z,10.26
2019-01-09T14:07:05.859Z,10.17
2019-01-09T14:09:16.225Z,9.96
2019-01-09T14:15:54.869Z,10.25
2019-01-09T14:17:47.824Z,9.98
2019-01-09T14:18:41.746Z,10.11
2019-01-09T14:19:34.310Z,10.13
2019-01-09T14:23:27.149Z,10.18
2019-01-09T14:24:24.725Z,10.16
2019-01-09T14:25:20.132Z,10.22
2019-01-09T14:26:18.224Z,10.28
2019-01-09T14:28:01.638Z,10.32
2019-01-09T14:28:58.958Z,10.26
2019-01-09T14:29:59.273Z,10.26
2019-01-09T14:30:58.614Z,10.36
2019-01-09T14:31:54.484Z,10.34
2019-01-09T14:32:49.338Z,10.2
2019-01-09T14:33:42.812Z,10.2
2019-01-09T14:34:36.245Z,10.24
2019-01-09T14:35:31.485Z,10.22
2019-01-09T14:36:27.826Z,10.25
2019-01-09T14:37:23.143Z,10.25
2019-01-09T14:38:15.843Z,10.26
2019-01-09T14:39:12.760Z,10.2
2019-01-09T14:40:09.981Z,10.16
2019-01-09T14:41:07.445Z,10.2
2019-01-09T14:42:02.342Z,10.18
2019-01-09T14:42:56.044Z,10.13
2019-01-09T14:43:49.265Z,10.13
2019-01-09T14:44:45.313Z,9.98
2019-01-09T14:45:39.639Z,9.88
2019-01-09T14:46:34.681Z,9.75
2019-01-09T14:47:31.450Z,9.85
2019-01-09T14:48:27.926Z,9.71
2019-01-09T14:49:24.388Z,9.78
2019-01-09T14:50:26.192Z,9.78
2019-01-09T14:51:22.817Z,9.93
2019-01-09T14:52:19.962Z,9.86
2019-01-09T14:53:17.412Z,9.86
2019-01-09T14:54:20.385Z,9.71
2019-01-09T14:55:17.187Z,9.68
2019-01-09T14:56:18.966Z,9.62